createdAt,value
2019-05-23T00:00:50.807Z,13.60
2019-05-23T00:03:45.801Z,14.10
2019-05-23T00:06:34.835Z,13.87
2019-05-23T00:09:24.604Z,12.60
2019-05-23T00:12:14.116Z,14.40
2019-05-23T00:15:01.027Z,13.50
2019-05-23T00:17:33.077Z,11.53
2019-05-23T00:20:04.315Z,12.77
2019-05-23T00:22:35.496Z,15.00
2019-05-23T00:25:07.971Z,16.20
2019-05-23T00:27:40.370Z,14.80
2019-05-23T00:30:13.697Z,13.67
2019-05-23T00:32:49.781Z,14.20
2019-05-23T00:35:20.814Z,14.57
2019-05-23T00:37:51.939Z,13.53
2019-05-23T00:40:23.091Z,15.10
2019-05-23T00:42:53.630Z,16.63
2019-05-23T00:45:25.194Z,14.90
2019-05-23T00:47:57.127Z,13.30
2019-05-23T00:50:27.647Z,13.60
2019-05-23T00:53:00.359Z,18.40
2019-05-23T00:55:30.407Z,15.27
2019-05-23T00:58:01.446Z,17.70
2019-05-23T01:00:32.455Z,13.93
2019-05-23T01:03:04.901Z,13.07
2019-05-23T01:05:35.348Z,13.60
2019-05-23T01:08:05.977Z,13.50
2019-05-23T01:10:36.617Z,13.90
2019-05-23T01:13:08.598Z,13.70
2019-05-23T01:15:41.803Z,13.43
2019-05-23T01:18:13.265Z,15.43
2019-05-23T01:21:17.310Z,12.57
2019-05-23T01:23:55.640Z,15.50
2019-05-23T01:26:25.865Z,13.10
2019-05-23T01:28:57.382Z,12.93
2019-05-23T01:31:33.786Z,14.17
2019-05-23T01:34:05.681Z,18.90
2019-05-23T01:36:37.183Z,17.30
2019-05-23T01:39:10.236Z,14.53
2019-05-23T01:41:41.372Z,16.23
2019-05-23T01:44:13.249Z,16.07
2019-05-23T01:46:45.423Z,19.53
2019-05-23T01:49:16.134Z,15.90
2019-05-23T01:51:46.594Z,17.47
2019-05-23T01:54:16.654Z,13.63
2019-05-23T01:56:48.049Z,21.80
2019-05-23T01:59:18.569Z,16.87
2019-05-23T02:01:49.425Z,14.40
2019-05-23T02:04:20.372Z,15.37
2019-05-23T02:06:51.087Z,18.63
2019-05-23T02:09:22.154Z,16.40
2019-05-23T02:11:52.318Z,15.53
2019-05-23T02:14:23.499Z,16.23
2019-05-23T02:16:56.232Z,16.23
2019-05-23T02:19:28.310Z,20.10
2019-05-23T02:21:58.795Z,17.87
2019-05-23T02:24:30.551Z,17.60
2019-05-23T02:27:01.679Z,16.23
2019-05-23T02:29:32.722Z,17.00
2019-05-23T02:32:07.070Z,16.67
2019-05-23T02:34:39.400Z,22.13
2019-05-23T02:37:20.005Z,20.30
2019-05-23T02:39:58.821Z,17.83
2019-05-23T02:42:34.701Z,16.57
2019-05-23T02:45:09.914Z,22.20
2019-05-23T02:47:44.945Z,19.50
2019-05-23T02:50:22.738Z,18.93
2019-05-23T02:52:56.327Z,17.07
2019-05-23T02:55:34.335Z,16.90
2019-05-23T02:58:19.635Z,15.07
2019-05-23T03:01:03.366Z,16.80
2019-05-23T03:03:35.664Z,18.33
2019-05-23T03:06:12.742Z,18.50
2019-05-23T03:08:44.183Z,17.07
2019-05-23T03:11:35.661Z,20.10
2019-05-23T03:14:06.278Z,17.60
2019-05-23T03:16:38.299Z,18.87
2019-05-23T03:19:14.040Z,15.30
2019-05-23T03:21:45.732Z,13.83
2019-05-23T03:24:16.564Z,15.63
2019-05-23T03:27:13.832Z,20.10
2019-05-23T03:29:44.865Z,17.43
2019-05-23T03:32:39.788Z,16.10
2019-05-23T03:35:24.137Z,15.13
2019-05-23T03:37:54.567Z,12.97
2019-05-23T03:40:25.079Z,15.67
2019-05-23T03:42:55.837Z,15.70
2019-05-23T03:45:30.519Z,18.73
2019-05-23T03:48:02.329Z,15.90
2019-05-23T03:50:33.172Z,16.67
2019-05-23T03:53:05.257Z,17.03
2019-05-23T03:55:36.752Z,15.40
2019-05-23T03:58:07.505Z,17.43
2019-05-23T04:00:43.704Z,16.73
2019-05-23T04:03:14.043Z,17.00
2019-05-23T04:05:45.969Z,16.90
2019-05-23T04:08:16.757Z,19.57
2019-05-23T04:10:51.408Z,19.17
2019-05-23T04:13:20.035Z,15.63
2019-05-23T04:15:51.235Z,16.70
2019-05-23T04:18:21.349Z,16.80
2019-05-23T04:20:51.904Z,16.13
2019-05-23T04:23:22.759Z,17.67
2019-05-23T04:25:53.316Z,21.83
2019-05-23T04:28:23.354Z,22.90
2019-05-23T04:30:54.325Z,22.47
2019-05-23T04:33:24.782Z,21.40
2019-05-23T04:35:54.818Z,18.70
2019-05-23T04:38:25.187Z,21.20
2019-05-23T04:40:56.203Z,20.37
2019-05-23T04:43:26.776Z,17.43
2019-05-23T04:45:57.458Z,21.80
2019-05-23T04:48:28.400Z,21.43
2019-05-23T04:51:00.060Z,18.13
2019-05-23T04:53:30.883Z,24.30
2019-05-23T04:56:01.865Z,16.87
2019-05-23T04:58:33.586Z,19.10
2019-05-23T05:01:07.389Z,18.30
2019-05-23T05:03:37.923Z,18.63
2019-05-23T05:06:08.458Z,18.83
2019-05-23T05:08:38.933Z,19.77
2019-05-23T05:11:09.064Z,21.40
2019-05-23T05:13:40.105Z,22.90
2019-05-23T05:16:10.540Z,18.50
2019-05-23T05:18:41.353Z,22.67
2019-05-23T05:21:11.869Z,23.90
2019-05-23T05:23:42.118Z,23.57
2019-05-23T05:26:16.952Z,24.43
2019-05-23T05:28:47.981Z,25.57
2019-05-23T05:31:18.465Z,21.60
2019-05-23T05:33:48.510Z,26.90
2019-05-23T05:36:18.660Z,23.60
2019-05-23T05:38:48.920Z,22.60
2019-05-23T05:41:20.767Z,24.10
2019-05-23T05:43:51.204Z,23.27
2019-05-23T05:46:21.471Z,22.93
2019-05-23T05:48:52.670Z,20.60
2019-05-23T05:51:23.664Z,23.00
2019-05-23T05:53:55.262Z,23.20
2019-05-23T05:56:25.694Z,23.03
2019-05-23T05:58:56.990Z,21.27
2019-05-23T06:01:33.996Z,22.60
2019-05-23T06:04:00.688Z,21.30
2019-05-23T06:06:36.520Z,24.17
2019-05-23T06:09:17.161Z,23.40
2019-05-23T06:11:47.375Z,24.20
2019-05-23T06:14:17.920Z,20.77
2019-05-23T06:16:48.450Z,26.63
2019-05-23T06:19:18.493Z,21.30
2019-05-23T06:21:48.915Z,19.07
2019-05-23T06:24:35.647Z,21.00
2019-05-23T06:26:51.566Z,20.47
2019-05-23T06:29:23.827Z,21.93
2019-05-23T06:31:55.011Z,20.53
2019-05-23T06:34:25.920Z,21.07
2019-05-23T06:36:55.978Z,23.20
2019-05-23T06:39:27.244Z,20.57
2019-05-23T06:41:57.826Z,19.87
2019-05-23T06:44:28.561Z,20.60
2019-05-23T06:46:58.790Z,21.90
2019-05-23T06:49:29.535Z,23.23
2019-05-23T06:52:00.139Z,20.07
2019-05-23T06:54:30.299Z,22.00
2019-05-23T06:57:00.450Z,23.93
2019-05-23T06:59:30.494Z,17.47
2019-05-23T07:02:02.816Z,21.03
2019-05-23T07:04:33.780Z,19.80
2019-05-23T07:07:04.212Z,19.47
2019-05-23T07:09:34.692Z,19.77
2019-05-23T07:12:05.222Z,17.97
2019-05-23T07:14:36.742Z,18.03
2019-05-23T07:17:07.570Z,20.10
2019-05-23T07:19:37.628Z,14.73
2019-05-23T07:22:07.923Z,19.77
2019-05-23T07:24:48.237Z,19.10
2019-05-23T07:27:10.924Z,16.40
2019-05-23T07:29:40.963Z,17.67
2019-05-23T07:32:11.008Z,16.13
2019-05-23T07:34:41.384Z,20.93
2019-05-23T07:37:12.024Z,16.40
2019-05-23T07:39:42.554Z,15.80
2019-05-23T07:42:12.581Z,12.80
2019-05-23T07:44:48.454Z,12.13
2019-05-23T07:47:18.623Z,13.20
2019-05-23T07:49:48.972Z,15.40
2019-05-23T07:52:19.795Z,15.87
2019-05-23T07:54:58.682Z,14.10
2019-05-23T07:57:29.197Z,9.90
2019-05-23T07:59:59.733Z,14.03
2019-05-23T08:02:34.245Z,10.40
2019-05-23T08:05:06.979Z,15.27
2019-05-23T08:07:37.374Z,11.17
2019-05-23T08:10:09.757Z,15.63
2019-05-23T08:12:40.500Z,11.63
2019-05-23T08:15:12.740Z,10.87
2019-05-23T08:17:43.179Z,8.13
2019-05-23T08:20:14.774Z,14.67
2019-05-23T08:22:46.664Z,8.37
2019-05-23T08:25:18.397Z,8.27
2019-05-23T08:27:48.516Z,8.40
2019-05-23T08:30:20.127Z,11.27
2019-05-23T08:32:51.048Z,6.30
2019-05-23T08:35:22.343Z,7.77
2019-05-23T08:37:53.642Z,6.17
2019-05-23T08:40:26.561Z,12.83
2019-05-23T08:42:56.643Z,8.40
2019-05-23T08:45:27.176Z,7.23
2019-05-23T08:47:57.896Z,7.93
2019-05-23T08:50:32.069Z,8.37
2019-05-23T08:53:03.812Z,8.20
2019-05-23T08:55:34.727Z,14.50
2019-05-23T08:58:06.814Z,7.73
2019-05-23T09:00:40.595Z,7.80
2019-05-23T09:03:11.383Z,8.27
2019-05-23T09:05:42.463Z,8.93
2019-05-23T09:08:16.800Z,9.53
2019-05-23T09:10:46.137Z,8.67
2019-05-23T09:13:16.639Z,8.23
2019-05-23T09:15:53.142Z,7.50
2019-05-23T09:18:19.653Z,7.60
2019-05-23T09:20:49.685Z,12.20
2019-05-23T09:23:21.190Z,7.23
2019-05-23T09:25:51.503Z,9.43
2019-05-23T09:28:21.625Z,8.27
2019-05-23T09:30:52.351Z,8.30
2019-05-23T09:33:22.415Z,8.77
2019-05-23T09:35:52.552Z,7.40
2019-05-23T09:38:22.962Z,8.60
2019-05-23T09:40:53.001Z,7.93
2019-05-23T09:43:23.421Z,6.43
2019-05-23T09:45:53.846Z,7.10
2019-05-23T09:48:23.979Z,8.67
2019-05-23T09:50:54.090Z,6.30
2019-05-23T09:53:24.289Z,7.20
2019-05-23T09:55:55.930Z,7.00
2019-05-23T09:58:27.499Z,7.03
2019-05-23T10:00:57.903Z,6.90
2019-05-23T10:03:28.037Z,7.53
2019-05-23T10:05:58.376Z,7.10
2019-05-23T10:08:28.689Z,8.53
2019-05-23T10:10:58.857Z,6.03
2019-05-23T10:13:38.956Z,6.23
2019-05-23T10:16:10.788Z,6.40
2019-05-23T10:18:43.381Z,5.83
2019-05-23T10:21:13.962Z,7.83
2019-05-23T10:23:43.993Z,7.50
2019-05-23T10:26:14.084Z,7.63
2019-05-23T10:28:44.479Z,6.57
2019-05-23T10:31:15.667Z,6.83
2019-05-23T10:33:45.740Z,6.20
2019-05-23T10:36:16.135Z,6.70
2019-05-23T10:38:46.284Z,6.10
2019-05-23T10:41:16.307Z,8.17
2019-05-23T10:43:46.462Z,5.40
2019-05-23T10:46:16.594Z,10.23
2019-05-23T10:48:47.608Z,6.63
2019-05-23T10:51:17.715Z,6.73
2019-05-23T10:53:47.749Z,6.13
2019-05-23T10:56:20.615Z,7.93
2019-05-23T10:58:50.671Z,6.73
2019-05-23T11:01:21.546Z,7.80
2019-05-23T11:03:51.595Z,7.90
2019-05-23T11:06:22.187Z,6.93
2019-05-23T11:08:53.441Z,5.20
2019-05-23T11:11:24.602Z,5.53
2019-05-23T11:13:56.940Z,7.03
2019-05-23T11:16:27.457Z,7.63
2019-05-23T11:18:58.626Z,4.10
2019-05-23T11:21:29.053Z,4.93
2019-05-23T11:24:00.286Z,7.97
2019-05-23T11:26:30.412Z,6.20
2019-05-23T11:29:00.922Z,4.50
2019-05-23T11:31:31.438Z,4.73
2019-05-23T11:34:01.553Z,4.70
2019-05-23T11:36:36.043Z,5.20
2019-05-23T11:39:05.478Z,4.10
2019-05-23T11:41:36.179Z,4.70
2019-05-23T11:44:07.276Z,5.43
2019-05-23T11:46:38.694Z,5.40
2019-05-23T11:49:09.478Z,4.30
2019-05-23T11:51:39.686Z,5.83
2019-05-23T11:54:10.415Z,5.30
2019-05-23T11:56:41.723Z,5.07
2019-05-23T11:59:11.860Z,6.10
2019-05-23T12:01:54.442Z,5.23
2019-05-23T12:04:28.036Z,4.30
2019-05-23T12:07:10.884Z,4.50
2019-05-23T12:09:41.082Z,4.47
2019-05-23T12:12:11.583Z,5.67
2019-05-23T12:14:42.519Z,4.33
2019-05-23T12:17:15.230Z,4.17
2019-05-23T12:19:46.077Z,4.37
2019-05-23T12:22:16.474Z,4.97
2019-05-23T12:24:46.667Z,5.73
2019-05-23T12:27:16.792Z,5.13
2019-05-23T12:29:48.277Z,6.23
2019-05-23T12:32:18.568Z,6.30
2019-05-23T12:35:08.527Z,5.20
2019-05-23T12:37:20.923Z,4.70
2019-05-23T12:39:51.682Z,4.83
2019-05-23T12:42:21.808Z,4.00
2019-05-23T12:44:52.373Z,4.40
2019-05-23T12:47:35.179Z,5.93
2019-05-23T12:50:10.424Z,5.97
2019-05-23T12:52:40.840Z,4.27
2019-05-23T12:55:11.222Z,4.43
2019-05-23T12:57:41.937Z,11.03
2019-05-23T13:00:25.250Z,3.80
2019-05-23T13:02:55.544Z,4.33
2019-05-23T13:05:26.066Z,3.77
2019-05-23T13:07:57.234Z,5.43
2019-05-23T13:10:27.682Z,3.43
2019-05-23T13:12:57.723Z,3.53
2019-05-23T13:15:28.571Z,3.70
2019-05-23T13:17:59.479Z,5.33
2019-05-23T13:20:30.510Z,4.53
2019-05-23T13:23:00.994Z,3.43
2019-05-23T13:25:31.564Z,4.40
2019-05-23T13:28:03.182Z,3.77
2019-05-23T13:30:33.321Z,4.40
2019-05-23T13:33:04.565Z,4.00
2019-05-23T13:35:35.535Z,4.70
2019-05-23T13:38:05.564Z,3.33
2019-05-23T13:40:35.913Z,4.07
2019-05-23T13:43:08.305Z,3.80
2019-05-23T13:45:37.931Z,4.23
2019-05-23T13:48:08.425Z,6.30
2019-05-23T13:50:39.019Z,6.10
2019-05-23T13:53:09.548Z,3.47
2019-05-23T13:55:40.420Z,5.70
2019-05-23T13:58:11.152Z,7.53
2019-05-23T14:00:41.343Z,5.10
2019-05-23T14:03:11.940Z,5.00
2019-05-23T14:05:42.500Z,5.90
2019-05-23T14:08:13.635Z,6.80
2019-05-23T14:10:44.459Z,5.90
2019-05-23T14:13:14.497Z,5.33
2019-05-23T14:15:46.921Z,4.43
2019-05-23T14:18:19.998Z,5.77
2019-05-23T14:20:50.952Z,6.00
2019-05-23T14:23:26.024Z,5.87
2019-05-23T14:25:57.155Z,5.87
2019-05-23T14:28:27.962Z,5.27
2019-05-23T14:31:15.995Z,4.60
2019-05-23T14:33:59.509Z,10.10
2019-05-23T14:36:40.799Z,4.80
2019-05-23T14:39:22.023Z,8.23
2019-05-23T14:42:14.217Z,5.20
2019-05-23T14:44:44.633Z,7.67
2019-05-23T14:47:47.316Z,5.23
2019-05-23T14:50:30.102Z,8.20
2019-05-23T14:53:01.078Z,6.30
2019-05-23T14:55:32.003Z,13.23
2019-05-23T14:58:03.152Z,6.37
2019-05-23T15:00:34.636Z,5.27
2019-05-23T15:03:05.387Z,6.50
2019-05-23T15:05:35.434Z,5.47
2019-05-23T15:08:05.836Z,8.73
2019-05-23T15:10:36.352Z,5.77
2019-05-23T15:13:06.871Z,6.27
2019-05-23T15:15:36.957Z,6.23
2019-05-23T15:18:07.341Z,5.23
2019-05-23T15:20:37.817Z,9.40
2019-05-23T15:23:08.064Z,7.83
2019-05-23T15:25:38.180Z,5.40
2019-05-23T15:28:08.517Z,4.90
2019-05-23T15:30:38.633Z,4.27
2019-05-23T15:33:09.129Z,6.23
2019-05-23T15:35:39.165Z,3.70
2019-05-23T15:38:09.203Z,3.80
2019-05-23T15:40:39.233Z,4.00
2019-05-23T15:43:10.366Z,4.53
2019-05-23T15:45:41.262Z,3.43
2019-05-23T15:48:11.516Z,4.93
2019-05-23T15:50:46.951Z,6.07
2019-05-23T15:53:25.268Z,4.57
2019-05-23T15:56:25.516Z,4.00
2019-05-23T15:58:57.669Z,4.50
2019-05-23T16:01:38.566Z,3.93
2019-05-23T16:04:11.897Z,4.00
2019-05-23T16:06:42.655Z,3.20
2019-05-23T16:09:28.745Z,2.97
2019-05-23T16:11:47.156Z,4.57
2019-05-23T16:14:17.349Z,5.43
2019-05-23T16:16:47.919Z,8.50
2019-05-23T16:19:18.058Z,76.10
2019-05-23T16:21:48.601Z,23.13
2019-05-23T16:24:18.802Z,6.43
2019-05-23T16:26:48.953Z,7.80
2019-05-23T16:29:19.591Z,3.60
2019-05-23T16:31:49.703Z,3.30
2019-05-23T16:34:20.686Z,5.83
2019-05-23T16:36:50.823Z,4.30
2019-05-23T16:39:21.221Z,3.67
2019-05-23T16:41:51.247Z,3.80
2019-05-23T16:44:21.721Z,7.43
2019-05-23T16:46:52.755Z,6.20
2019-05-23T16:49:22.867Z,3.80
2019-05-23T16:51:53.235Z,2.60
2019-05-23T16:54:27.420Z,3.40
2019-05-23T16:57:19.388Z,4.03
2019-05-23T16:59:55.296Z,5.17
2019-05-23T17:02:50.511Z,3.90
2019-05-23T17:05:38.805Z,4.37
2019-05-23T17:08:23.319Z,4.73
2019-05-23T17:10:58.603Z,4.87
2019-05-23T17:13:33.020Z,3.87
2019-05-23T17:16:12.300Z,3.60
2019-05-23T17:18:51.351Z,3.00
2019-05-23T17:21:46.951Z,3.13
2019-05-23T17:24:28.913Z,2.70
2019-05-23T17:27:06.828Z,7.07
2019-05-23T17:29:44.838Z,2.90
2019-05-23T17:32:18.183Z,4.50
2019-05-23T17:34:48.901Z,4.30
2019-05-23T17:37:20.669Z,5.00
2019-05-23T17:39:53.328Z,2.90
2019-05-23T17:42:23.736Z,6.17
2019-05-23T17:44:54.914Z,3.13
2019-05-23T17:47:25.783Z,3.10
2019-05-23T17:49:55.851Z,2.63
2019-05-23T17:52:26.330Z,4.50
2019-05-23T17:54:56.555Z,3.47
2019-05-23T17:57:27.019Z,5.43
2019-05-23T17:59:57.146Z,5.00
2019-05-23T18:02:28.052Z,5.40
2019-05-23T18:04:58.500Z,3.33
2019-05-23T18:07:28.649Z,4.77
2019-05-23T18:09:59.282Z,6.17
2019-05-23T18:12:30.161Z,3.27
2019-05-23T18:15:00.285Z,5.93
2019-05-23T18:17:30.629Z,3.60
2019-05-23T18:20:01.194Z,6.40
2019-05-23T18:22:33.413Z,3.70
2019-05-23T18:25:04.622Z,4.70
2019-05-23T18:27:34.752Z,4.03
2019-05-23T18:30:07.453Z,3.50
2019-05-23T18:32:38.020Z,3.70
2019-05-23T18:35:10.886Z,4.13
2019-05-23T18:37:41.880Z,7.63
2019-05-23T18:40:12.099Z,5.77
2019-05-23T18:42:42.734Z,5.67
2019-05-23T18:45:13.531Z,4.63
2019-05-23T18:47:43.992Z,3.80
2019-05-23T18:50:14.869Z,3.17
2019-05-23T18:52:45.739Z,3.73
2019-05-23T18:55:17.726Z,3.60
2019-05-23T18:57:48.266Z,4.77
2019-05-23T19:00:20.676Z,4.10
2019-05-23T19:02:50.898Z,4.17
2019-05-23T19:05:27.355Z,7.97
2019-05-23T19:07:56.002Z,3.40
2019-05-23T19:10:27.424Z,3.93
2019-05-23T19:12:57.734Z,3.00
2019-05-23T19:15:27.864Z,3.30
2019-05-23T19:17:58.348Z,4.00
2019-05-23T19:20:28.838Z,8.90
2019-05-23T19:22:59.456Z,7.00
2019-05-23T19:25:30.230Z,3.50
2019-05-23T19:28:00.738Z,3.60
2019-05-23T19:30:36.854Z,3.53
2019-05-23T19:33:08.058Z,4.93
2019-05-23T19:35:38.856Z,4.00
2019-05-23T19:38:09.373Z,4.83
2019-05-23T19:40:41.180Z,4.00
2019-05-23T19:43:14.940Z,4.80
2019-05-23T19:45:45.506Z,5.73
2019-05-23T19:48:15.639Z,3.77
2019-05-23T19:50:46.301Z,3.70
2019-05-23T19:53:16.570Z,5.17
2019-05-23T19:55:47.045Z,6.83
2019-05-23T19:58:17.985Z,3.90
2019-05-23T20:00:50.208Z,4.30
2019-05-23T20:03:21.774Z,8.10
2019-05-23T20:05:53.464Z,5.10
2019-05-23T20:08:23.966Z,4.97
2019-05-23T20:10:54.721Z,3.70
2019-05-23T20:13:24.918Z,7.00
2019-05-23T20:15:55.671Z,8.07
2019-05-23T20:18:25.911Z,4.00
2019-05-23T20:20:56.031Z,5.20
2019-05-23T20:23:26.885Z,5.20
2019-05-23T20:25:57.877Z,4.10
2019-05-23T20:28:28.418Z,5.87
2019-05-23T20:30:59.640Z,7.80
2019-05-23T20:33:30.462Z,8.43
2019-05-23T20:36:02.783Z,4.30
2019-05-23T20:38:33.595Z,6.00
2019-05-23T20:41:03.690Z,8.50
2019-05-23T20:43:34.942Z,6.07
2019-05-23T20:46:05.433Z,6.53
2019-05-23T20:48:37.098Z,7.03
2019-05-23T20:51:09.023Z,4.40
2019-05-23T20:53:39.926Z,5.30
2019-05-23T20:56:10.308Z,12.17
2019-05-23T20:58:40.410Z,6.57
2019-05-23T21:01:18.196Z,6.30
2019-05-23T21:03:49.419Z,8.40
2019-05-23T21:06:20.301Z,6.27
2019-05-23T21:08:50.423Z,6.83
2019-05-23T21:11:20.691Z,6.80
2019-05-23T21:13:51.361Z,6.93
2019-05-23T21:16:21.972Z,7.23
2019-05-23T21:18:52.578Z,5.70
2019-05-23T21:21:22.768Z,6.17
2019-05-23T21:23:56.616Z,6.23
2019-05-23T21:26:25.451Z,11.70
2019-05-23T21:28:55.588Z,6.37
2019-05-23T21:31:26.228Z,5.23
2019-05-23T21:33:56.544Z,5.30
2019-05-23T21:36:26.934Z,6.00
2019-05-23T21:38:57.070Z,5.53
2019-05-23T21:41:27.647Z,6.50
2019-05-23T21:43:58.212Z,7.87
2019-05-23T21:46:28.958Z,6.93
2019-05-23T21:48:59.106Z,11.60
2019-05-23T21:51:29.544Z,6.77
2019-05-23T21:53:59.715Z,6.90
2019-05-23T21:56:29.973Z,6.57
2019-05-23T21:59:00.095Z,6.20
2019-05-23T22:01:52.224Z,5.47
2019-05-23T22:04:38.757Z,5.80
2019-05-23T22:07:09.395Z,7.30
2019-05-23T22:09:39.566Z,6.17
2019-05-23T22:12:13.419Z,7.93
2019-05-23T22:14:44.256Z,9.43
2019-05-23T22:17:14.745Z,11.63
2019-05-23T22:19:45.206Z,7.90
2019-05-23T22:22:15.406Z,6.80
2019-05-23T22:24:45.677Z,9.50
2019-05-23T22:27:16.227Z,8.20
2019-05-23T22:29:47.347Z,8.00
2019-05-23T22:32:19.056Z,5.00
2019-05-23T22:35:00.215Z,9.83
2019-05-23T22:37:31.417Z,7.47
2019-05-23T22:40:01.844Z,8.50
2019-05-23T22:42:33.804Z,7.60
2019-05-23T22:45:05.904Z,6.20
2019-05-23T22:47:35.998Z,6.37
2019-05-23T22:50:06.719Z,5.70
2019-05-23T22:52:36.854Z,12.23
2019-05-23T22:55:06.921Z,9.03
2019-05-23T22:57:37.020Z,8.20
2019-05-23T23:00:07.344Z,8.60
2019-05-23T23:02:37.451Z,5.80
2019-05-23T23:05:09.740Z,7.80
2019-05-23T23:07:40.200Z,6.00
2019-05-23T23:10:10.730Z,5.97
2019-05-23T23:12:41.043Z,6.13
2019-05-23T23:15:11.298Z,6.70
2019-05-23T23:17:41.449Z,7.73
2019-05-23T23:20:12.369Z,6.10
2019-05-23T23:22:42.572Z,5.80
2019-05-23T23:25:13.015Z,9.00
2019-05-23T23:27:43.035Z,7.07
2019-05-23T23:30:15.056Z,6.60
2019-05-23T23:32:45.609Z,8.53
2019-05-23T23:35:15.751Z,6.93
2019-05-23T23:37:46.071Z,7.67
2019-05-23T23:40:16.237Z,6.13
2019-05-23T23:42:46.596Z,7.40
2019-05-23T23:45:34.273Z,7.00
2019-05-23T23:48:22.212Z,5.60
2019-05-23T23:51:10.363Z,6.20
2019-05-23T23:53:57.939Z,6.90
2019-05-23T23:56:46.126Z,8.00
2019-05-23T23:59:15.604Z,8.30
